sensor_id;sensor_type;location;lat;lon;timestamp;P1;durP1;ratioP1;P2;durP2;ratioP2
70953;SDS011;58618;47.490;8.736;2024-03-02T00:00:29;21.30;;;10.02;;
70953;SDS011;58618;47.490;8.736;2024-03-02T00:03:16;15.55;;;7.70;;
70953;SDS011;58618;47.490;8.736;2024-03-02T00:06:04;19.07;;;8.40;;
70953;SDS011;58618;47.490;8.736;2024-03-02T00:08:56;16.17;;;8.15;;
70953;SDS011;58618;47.490;8.736;2024-03-02T00:11:44;15.30;;;7.80;;
70953;SDS011;58618;47.490;8.736;2024-03-02T00:14:32;16.27;;;8.55;;
70953;SDS011;58618;47.490;8.736;2024-03-02T00:17:21;18.45;;;8.07;;
70953;SDS011;58618;47.490;8.736;2024-03-02T00:20:11;20.43;;;9.90;;
70953;SDS011;58618;47.490;8.736;2024-03-02T00:23:08;31.95;;;11.18;;
70953;SDS011;58618;47.490;8.736;2024-03-02T00:25:57;22.30;;;11.20;;
70953;SDS011;58618;47.490;8.736;2024-03-02T00:28:46;24.08;;;10.55;;
70953;SDS011;58618;47.490;8.736;2024-03-02T00:31:36;22.85;;;11.13;;
70953;SDS011;58618;47.490;8.736;2024-03-02T00:34:23;22.53;;;10.73;;
70953;SDS011;58618;47.490;8.736;2024-03-02T00:37:11;23.08;;;10.32;;
70953;SDS011;58618;47.490;8.736;2024-03-02T00:39:58;23.95;;;9.93;;
70953;SDS011;58618;47.490;8.736;2024-03-02T00:42:47;25.38;;;11.38;;
70953;SDS011;58618;47.490;8.736;2024-03-02T00:45:35;26.27;;;12.07;;
70953;SDS011;58618;47.490;8.736;2024-03-02T00:48:22;25.33;;;11.73;;
70953;SDS011;58618;47.490;8.736;2024-03-02T00:51:09;28.08;;;12.65;;
70953;SDS011;58618;47.490;8.736;2024-03-02T00:53:58;29.05;;;13.35;;
70953;SDS011;58618;47.490;8.736;2024-03-02T00:56:47;28.25;;;12.85;;
70953;SDS011;58618;47.490;8.736;2024-03-02T00:59:36;29.98;;;13.98;;
70953;SDS011;58618;47.490;8.736;2024-03-02T01:02:24;32.93;;;14.93;;
70953;SDS011;58618;47.490;8.736;2024-03-02T01:05:11;34.75;;;16.63;;
70953;SDS011;58618;47.490;8.736;2024-03-02T01:07:58;42.05;;;17.42;;
70953;SDS011;58618;47.490;8.736;2024-03-02T01:10:53;38.78;;;16.20;;
70953;SDS011;58618;47.490;8.736;2024-03-02T01:13:46;50.42;;;17.52;;
70953;SDS011;58618;47.490;8.736;2024-03-02T01:16:35;47.97;;;17.50;;
70953;SDS011;58618;47.490;8.736;2024-03-02T01:19:22;53.88;;;17.98;;
70953;SDS011;58618;47.490;8.736;2024-03-02T01:22:10;51.65;;;15.13;;
70953;SDS011;58618;47.490;8.736;2024-03-02T01:24:57;37.42;;;15.45;;
70953;SDS011;58618;47.490;8.736;2024-03-02T01:27:44;28.33;;;12.88;;
70953;SDS011;58618;47.490;8.736;2024-03-02T01:30:31;57.10;;;14.80;;
70953;SDS011;58618;47.490;8.736;2024-03-02T01:33:23;41.65;;;14.60;;
70953;SDS011;58618;47.490;8.736;2024-03-02T01:40:42;36.15;;;12.88;;
70953;SDS011;58618;47.490;8.736;2024-03-02T01:43:48;31.55;;;11.65;;
70953;SDS011;58618;47.490;8.736;2024-03-02T01:47:10;43.23;;;13.50;;
70953;SDS011;58618;47.490;8.736;2024-03-02T01:49:59;30.38;;;14.55;;
70953;SDS011;58618;47.490;8.736;2024-03-02T01:52:47;37.67;;;12.90;;
70953;SDS011;58618;47.490;8.736;2024-03-02T01:55:34;73.25;;;15.25;;
70953;SDS011;58618;47.490;8.736;2024-03-02T01:58:25;43.55;;;14.30;;
70953;SDS011;58618;47.490;8.736;2024-03-02T02:01:24;51.60;;;15.77;;
70953;SDS011;58618;47.490;8.736;2024-03-02T02:04:36;43.30;;;14.45;;
70953;SDS011;58618;47.490;8.736;2024-03-02T02:07:25;49.55;;;13.80;;
70953;SDS011;58618;47.490;8.736;2024-03-02T02:10:12;37.92;;;14.60;;
70953;SDS011;58618;47.490;8.736;2024-03-02T02:13:00;30.15;;;14.02;;
70953;SDS011;58618;47.490;8.736;2024-03-02T02:15:48;34.13;;;14.20;;
70953;SDS011;58618;47.490;8.736;2024-03-02T02:18:36;27.85;;;13.88;;
70953;SDS011;58618;47.490;8.736;2024-03-02T02:21:24;28.25;;;13.30;;
70953;SDS011;58618;47.490;8.736;2024-03-02T02:24:13;22.65;;;12.50;;
70953;SDS011;58618;47.490;8.736;2024-03-02T02:27:00;23.55;;;12.38;;
70953;SDS011;58618;47.490;8.736;2024-03-02T02:29:47;22.10;;;11.87;;
70953;SDS011;58618;47.490;8.736;2024-03-02T02:32:35;23.02;;;12.05;;
70953;SDS011;58618;47.490;8.736;2024-03-02T02:35:22;22.52;;;11.95;;
70953;SDS011;58618;47.490;8.736;2024-03-02T02:38:11;20.73;;;11.65;;
70953;SDS011;58618;47.490;8.736;2024-03-02T02:40:58;20.00;;;10.90;;
70953;SDS011;58618;47.490;8.736;2024-03-02T02:43:45;21.40;;;10.60;;
70953;SDS011;58618;47.490;8.736;2024-03-02T02:46:33;16.95;;;10.20;;
70953;SDS011;58618;47.490;8.736;2024-03-02T02:49:20;18.20;;;9.38;;
70953;SDS011;58618;47.490;8.736;2024-03-02T02:52:07;19.15;;;10.57;;
70953;SDS011;58618;47.490;8.736;2024-03-02T02:54:56;20.20;;;10.77;;
70953;SDS011;58618;47.490;8.736;2024-03-02T02:57:43;19.97;;;10.00;;
70953;SDS011;58618;47.490;8.736;2024-03-02T03:00:31;19.50;;;10.10;;
70953;SDS011;58618;47.490;8.736;2024-03-02T03:03:19;18.10;;;9.90;;
70953;SDS011;58618;47.490;8.736;2024-03-02T03:06:06;17.42;;;9.02;;
70953;SDS011;58618;47.490;8.736;2024-03-02T03:08:53;17.13;;;9.40;;
70953;SDS011;58618;47.490;8.736;2024-03-02T03:11:42;16.07;;;8.63;;
70953;SDS011;58618;47.490;8.736;2024-03-02T03:14:30;16.88;;;9.38;;
70953;SDS011;58618;47.490;8.736;2024-03-02T03:17:17;16.80;;;9.40;;
70953;SDS011;58618;47.490;8.736;2024-03-02T03:20:05;16.00;;;9.10;;
70953;SDS011;58618;47.490;8.736;2024-03-02T03:22:55;18.60;;;9.55;;
70953;SDS011;58618;47.490;8.736;2024-03-02T03:25:43;17.93;;;9.50;;
70953;SDS011;58618;47.490;8.736;2024-03-02T03:28:32;17.33;;;9.18;;
70953;SDS011;58618;47.490;8.736;2024-03-02T03:32:00;16.63;;;9.00;;
70953;SDS011;58618;47.490;8.736;2024-03-02T03:34:44;17.23;;;9.48;;
70953;SDS011;58618;47.490;8.736;2024-03-02T03:37:31;19.58;;;10.05;;
70953;SDS011;58618;47.490;8.736;2024-03-02T03:40:19;17.87;;;9.37;;
70953;SDS011;58618;47.490;8.736;2024-03-02T03:43:06;19.58;;;9.98;;
70953;SDS011;58618;47.490;8.736;2024-03-02T03:45:55;21.63;;;10.40;;
70953;SDS011;58618;47.490;8.736;2024-03-02T03:48:43;22.58;;;9.90;;
70953;SDS011;58618;47.490;8.736;2024-03-02T03:51:30;17.17;;;9.77;;
70953;SDS011;58618;47.490;8.736;2024-03-02T03:54:17;20.07;;;9.93;;
70953;SDS011;58618;47.490;8.736;2024-03-02T03:57:04;17.88;;;8.45;;
70953;SDS011;58618;47.490;8.736;2024-03-02T03:59:52;17.65;;;10.07;;
70953;SDS011;58618;47.490;8.736;2024-03-02T04:02:40;19.13;;;10.05;;
70953;SDS011;58618;47.490;8.736;2024-03-02T04:05:28;19.98;;;10.10;;
70953;SDS011;58618;47.490;8.736;2024-03-02T04:08:15;17.60;;;9.27;;
70953;SDS011;58618;47.490;8.736;2024-03-02T04:11:02;19.23;;;9.80;;
70953;SDS011;58618;47.490;8.736;2024-03-02T04:13:50;20.00;;;9.95;;
70953;SDS011;58618;47.490;8.736;2024-03-02T04:16:37;15.73;;;8.40;;
70953;SDS011;58618;47.490;8.736;2024-03-02T04:19:26;15.10;;;7.93;;
70953;SDS011;58618;47.490;8.736;2024-03-02T04:22:13;16.43;;;7.03;;
70953;SDS011;58618;47.490;8.736;2024-03-02T04:25:01;14.50;;;6.72;;
70953;SDS011;58618;47.490;8.736;2024-03-02T04:27:50;14.45;;;6.82;;
70953;SDS011;58618;47.490;8.736;2024-03-02T04:30:40;13.80;;;7.03;;
70953;SDS011;58618;47.490;8.736;2024-03-02T04:33:27;15.68;;;7.40;;
70953;SDS011;58618;47.490;8.736;2024-03-02T04:36:16;12.70;;;6.20;;
70953;SDS011;58618;47.490;8.736;2024-03-02T04:39:03;12.05;;;6.45;;
70953;SDS011;58618;47.490;8.736;2024-03-02T04:41:55;12.85;;;5.95;;
70953;SDS011;58618;47.490;8.736;2024-03-02T04:44:43;13.23;;;6.03;;
70953;SDS011;58618;47.490;8.736;2024-03-02T04:47:30;11.98;;;6.22;;
70953;SDS011;58618;47.490;8.736;2024-03-02T04:50:17;12.70;;;6.63;;
70953;SDS011;58618;47.490;8.736;2024-03-02T04:53:06;13.50;;;6.80;;
70953;SDS011;58618;47.490;8.736;2024-03-02T04:55:54;14.77;;;7.25;;
70953;SDS011;58618;47.490;8.736;2024-03-02T04:58:58;11.48;;;6.13;;
70953;SDS011;58618;47.490;8.736;2024-03-02T05:01:46;15.82;;;6.90;;
70953;SDS011;58618;47.490;8.736;2024-03-02T05:04:34;14.07;;;6.97;;
70953;SDS011;58618;47.490;8.736;2024-03-02T05:07:21;14.70;;;6.65;;
70953;SDS011;58618;47.490;8.736;2024-03-02T05:10:10;13.40;;;6.55;;
70953;SDS011;58618;47.490;8.736;2024-03-02T05:12:58;13.02;;;6.35;;
70953;SDS011;58618;47.490;8.736;2024-03-02T05:15:45;14.23;;;6.78;;
70953;SDS011;58618;47.490;8.736;2024-03-02T05:18:33;12.70;;;7.17;;
70953;SDS011;58618;47.490;8.736;2024-03-02T05:21:20;16.15;;;7.07;;
70953;SDS011;58618;47.490;8.736;2024-03-02T05:24:08;12.27;;;6.88;;
70953;SDS011;58618;47.490;8.736;2024-03-02T05:26:56;13.70;;;6.70;;
70953;SDS011;58618;47.490;8.736;2024-03-02T05:33:06;11.87;;;6.20;;
70953;SDS011;58618;47.490;8.736;2024-03-02T05:35:54;10.77;;;5.57;;
70953;SDS011;58618;47.490;8.736;2024-03-02T05:38:41;10.50;;;5.68;;
70953;SDS011;58618;47.490;8.736;2024-03-02T05:41:28;10.15;;;5.40;;
70953;SDS011;58618;47.490;8.736;2024-03-02T05:44:17;14.38;;;6.82;;
70953;SDS011;58618;47.490;8.736;2024-03-02T05:47:05;16.93;;;8.40;;
70953;SDS011;58618;47.490;8.736;2024-03-02T05:49:54;16.88;;;8.23;;
70953;SDS011;58618;47.490;8.736;2024-03-02T05:52:41;16.83;;;8.93;;
70953;SDS011;58618;47.490;8.736;2024-03-02T05:55:29;18.88;;;8.73;;
70953;SDS011;58618;47.490;8.736;2024-03-02T05:58:17;20.65;;;9.07;;
70953;SDS011;58618;47.490;8.736;2024-03-02T06:01:14;18.27;;;8.87;;
70953;SDS011;58618;47.490;8.736;2024-03-02T06:04:03;17.63;;;9.25;;
70953;SDS011;58618;47.490;8.736;2024-03-02T06:06:51;32.78;;;9.68;;
70953;SDS011;58618;47.490;8.736;2024-03-02T06:09:40;37.17;;;9.50;;
70953;SDS011;58618;47.490;8.736;2024-03-02T06:12:28;38.40;;;9.57;;
70953;SDS011;58618;47.490;8.736;2024-03-02T06:15:18;38.33;;;8.23;;
70953;SDS011;58618;47.490;8.736;2024-03-02T06:18:07;28.52;;;9.13;;
70953;SDS011;58618;47.490;8.736;2024-03-02T06:20:54;21.70;;;9.45;;
70953;SDS011;58618;47.490;8.736;2024-03-02T06:23:41;21.10;;;9.18;;
70953;SDS011;58618;47.490;8.736;2024-03-02T06:26:28;18.30;;;8.98;;
70953;SDS011;58618;47.490;8.736;2024-03-02T06:29:17;109.37;;;10.60;;
70953;SDS011;58618;47.490;8.736;2024-03-02T06:32:05;53.17;;;9.98;;
70953;SDS011;58618;47.490;8.736;2024-03-02T06:34:54;37.20;;;9.88;;
70953;SDS011;58618;47.490;8.736;2024-03-02T06:37:41;46.28;;;8.88;;
70953;SDS011;58618;47.490;8.736;2024-03-02T06:40:28;86.70;;;10.60;;
70953;SDS011;58618;47.490;8.736;2024-03-02T06:43:15;65.37;;;8.73;;
70953;SDS011;58618;47.490;8.736;2024-03-02T06:46:03;32.17;;;8.73;;
70953;SDS011;58618;47.490;8.736;2024-03-02T06:48:50;36.53;;;9.50;;
70953;SDS011;58618;47.490;8.736;2024-03-02T06:51:39;72.97;;;9.55;;
70953;SDS011;58618;47.490;8.736;2024-03-02T06:54:28;63.97;;;9.25;;
70953;SDS011;58618;47.490;8.736;2024-03-02T06:57:15;127.63;;;10.33;;
70953;SDS011;58618;47.490;8.736;2024-03-02T07:00:03;97.82;;;10.02;;
70953;SDS011;58618;47.490;8.736;2024-03-02T07:02:52;26.50;;;8.32;;
70953;SDS011;58618;47.490;8.736;2024-03-02T07:05:39;127.95;;;11.32;;
70953;SDS011;58618;47.490;8.736;2024-03-02T07:08:29;79.00;;;10.10;;
70953;SDS011;58618;47.490;8.736;2024-03-02T07:11:16;26.27;;;8.77;;
70953;SDS011;58618;47.490;8.736;2024-03-02T07:14:03;80.80;;;10.38;;
70953;SDS011;58618;47.490;8.736;2024-03-02T07:16:50;94.55;;;11.02;;
70953;SDS011;58618;47.490;8.736;2024-03-02T07:19:38;44.28;;;9.55;;
70953;SDS011;58618;47.490;8.736;2024-03-02T07:22:25;115.38;;;10.07;;
70953;SDS011;58618;47.490;8.736;2024-03-02T07:25:14;65.57;;;9.17;;
70953;SDS011;58618;47.490;8.736;2024-03-02T07:28:01;26.08;;;8.30;;
70953;SDS011;58618;47.490;8.736;2024-03-02T07:30:57;21.77;;;7.10;;
70953;SDS011;58618;47.490;8.736;2024-03-02T07:33:45;43.67;;;7.57;;
70953;SDS011;58618;47.490;8.736;2024-03-02T07:36:33;64.88;;;8.02;;
70953;SDS011;58618;47.490;8.736;2024-03-02T07:39:20;20.87;;;7.00;;
70953;SDS011;58618;47.490;8.736;2024-03-02T07:42:09;51.92;;;7.85;;
70953;SDS011;58618;47.490;8.736;2024-03-02T07:44:56;73.90;;;8.50;;
70953;SDS011;58618;47.490;8.736;2024-03-02T07:47:44;22.58;;;7.30;;
70953;SDS011;58618;47.490;8.736;2024-03-02T07:50:33;38.80;;;6.43;;
70953;SDS011;58618;47.490;8.736;2024-03-02T07:53:21;77.47;;;8.17;;
70953;SDS011;58618;47.490;8.736;2024-03-02T07:56:08;20.88;;;6.32;;
70953;SDS011;58618;47.490;8.736;2024-03-02T07:58:57;21.38;;;6.70;;
70953;SDS011;58618;47.490;8.736;2024-03-02T08:01:46;22.73;;;7.30;;
70953;SDS011;58618;47.490;8.736;2024-03-02T08:04:34;18.20;;;7.72;;
70953;SDS011;58618;47.490;8.736;2024-03-02T08:07:21;22.80;;;8.07;;
70953;SDS011;58618;47.490;8.736;2024-03-02T08:10:09;18.70;;;7.40;;
70953;SDS011;58618;47.490;8.736;2024-03-02T08:12:56;29.70;;;7.03;;
70953;SDS011;58618;47.490;8.736;2024-03-02T08:15:45;17.77;;;6.63;;
70953;SDS011;58618;47.490;8.736;2024-03-02T08:18:32;28.48;;;6.40;;
70953;SDS011;58618;47.490;8.736;2024-03-02T08:21:20;12.20;;;6.60;;
70953;SDS011;58618;47.490;8.736;2024-03-02T08:24:07;22.35;;;5.90;;
70953;SDS011;58618;47.490;8.736;2024-03-02T08:26:55;24.20;;;5.38;;
70953;SDS011;58618;47.490;8.736;2024-03-02T08:29:42;19.02;;;4.95;;
70953;SDS011;58618;47.490;8.736;2024-03-02T08:32:31;13.35;;;4.90;;
70953;SDS011;58618;47.490;8.736;2024-03-02T08:35:18;19.23;;;4.53;;
70953;SDS011;58618;47.490;8.736;2024-03-02T08:38:10;9.25;;;4.70;;
70953;SDS011;58618;47.490;8.736;2024-03-02T08:41:00;7.50;;;4.95;;
70953;SDS011;58618;47.490;8.736;2024-03-02T08:43:49;11.57;;;4.63;;
70953;SDS011;58618;47.490;8.736;2024-03-02T08:46:36;10.77;;;4.78;;
70953;SDS011;58618;47.490;8.736;2024-03-02T08:49:28;8.47;;;4.70;;
70953;SDS011;58618;47.490;8.736;2024-03-02T08:52:17;7.78;;;4.88;;
70953;SDS011;58618;47.490;8.736;2024-03-02T08:55:05;8.13;;;5.30;;
70953;SDS011;58618;47.490;8.736;2024-03-02T08:57:53;9.27;;;6.03;;
70953;SDS011;58618;47.490;8.736;2024-03-02T09:00:41;13.40;;;6.10;;
70953;SDS011;58618;47.490;8.736;2024-03-02T09:03:29;9.53;;;6.33;;
70953;SDS011;58618;47.490;8.736;2024-03-02T09:06:20;11.73;;;5.95;;
70953;SDS011;58618;47.490;8.736;2024-03-02T09:09:07;9.77;;;6.03;;
70953;SDS011;58618;47.490;8.736;2024-03-02T09:11:55;9.90;;;5.75;;
70953;SDS011;58618;47.490;8.736;2024-03-02T09:14:43;10.02;;;6.55;;
70953;SDS011;58618;47.490;8.736;2024-03-02T09:17:31;9.13;;;5.97;;
70953;SDS011;58618;47.490;8.736;2024-03-02T09:20:18;7.93;;;5.47;;
70953;SDS011;58618;47.490;8.736;2024-03-02T09:23:07;8.27;;;5.95;;
70953;SDS011;58618;47.490;8.736;2024-03-02T09:25:54;7.30;;;5.32;;
70953;SDS011;58618;47.490;8.736;2024-03-02T09:28:42;8.05;;;5.38;;
70953;SDS011;58618;47.490;8.736;2024-03-02T09:31:30;9.97;;;6.23;;
70953;SDS011;58618;47.490;8.736;2024-03-02T09:34:17;8.43;;;6.10;;
70953;SDS011;58618;47.490;8.736;2024-03-02T09:37:05;8.68;;;5.57;;
70953;SDS011;58618;47.490;8.736;2024-03-02T09:39:55;9.25;;;5.95;;
70953;SDS011;58618;47.490;8.736;2024-03-02T09:42:42;9.38;;;6.10;;
70953;SDS011;58618;47.490;8.736;2024-03-02T09:45:37;11.07;;;6.13;;
70953;SDS011;58618;47.490;8.736;2024-03-02T09:48:24;8.90;;;6.30;;
70953;SDS011;58618;47.490;8.736;2024-03-02T09:51:12;9.30;;;5.85;;
70953;SDS011;58618;47.490;8.736;2024-03-02T09:54:00;8.52;;;6.00;;
70953;SDS011;58618;47.490;8.736;2024-03-02T09:56:49;9.27;;;5.82;;
70953;SDS011;58618;47.490;8.736;2024-03-02T09:59:37;8.83;;;5.90;;
70953;SDS011;58618;47.490;8.736;2024-03-02T10:02:27;8.48;;;5.68;;
70953;SDS011;58618;47.490;8.736;2024-03-02T10:05:23;8.82;;;5.65;;
70953;SDS011;58618;47.490;8.736;2024-03-02T10:08:10;9.27;;;5.88;;
70953;SDS011;58618;47.490;8.736;2024-03-02T10:10:58;8.90;;;6.30;;
70953;SDS011;58618;47.490;8.736;2024-03-02T10:13:46;10.00;;;6.30;;
70953;SDS011;58618;47.490;8.736;2024-03-02T10:16:35;10.05;;;6.25;;
70953;SDS011;58618;47.490;8.736;2024-03-02T10:19:24;11.75;;;6.93;;
70953;SDS011;58618;47.490;8.736;2024-03-02T10:22:13;11.05;;;7.03;;
70953;SDS011;58618;47.490;8.736;2024-03-02T10:25:01;10.20;;;7.00;;
70953;SDS011;58618;47.490;8.736;2024-03-02T10:27:49;11.27;;;6.50;;
70953;SDS011;58618;47.490;8.736;2024-03-02T10:30:38;11.32;;;7.50;;
70953;SDS011;58618;47.490;8.736;2024-03-02T10:33:28;12.00;;;6.93;;
70953;SDS011;58618;47.490;8.736;2024-03-02T10:36:15;9.77;;;6.53;;
70953;SDS011;58618;47.490;8.736;2024-03-02T10:39:03;12.43;;;7.68;;
70953;SDS011;58618;47.490;8.736;2024-03-02T10:41:51;12.33;;;7.63;;
70953;SDS011;58618;47.490;8.736;2024-03-02T10:44:39;10.95;;;6.65;;
70953;SDS011;58618;47.490;8.736;2024-03-02T10:47:28;10.60;;;7.50;;
70953;SDS011;58618;47.490;8.736;2024-03-02T10:50:18;9.90;;;6.32;;
70953;SDS011;58618;47.490;8.736;2024-03-02T10:53:05;10.63;;;6.72;;
70953;SDS011;58618;47.490;8.736;2024-03-02T10:55:53;10.67;;;6.47;;
70953;SDS011;58618;47.490;8.736;2024-03-02T10:58:48;9.75;;;6.97;;
70953;SDS011;58618;47.490;8.736;2024-03-02T11:01:38;10.88;;;7.07;;
70953;SDS011;58618;47.490;8.736;2024-03-02T11:04:28;9.70;;;6.60;;
70953;SDS011;58618;47.490;8.736;2024-03-02T11:07:16;9.52;;;6.28;;
70953;SDS011;58618;47.490;8.736;2024-03-02T11:10:08;9.70;;;6.57;;
70953;SDS011;58618;47.490;8.736;2024-03-02T11:12:56;9.20;;;6.50;;
70953;SDS011;58618;47.490;8.736;2024-03-02T11:15:47;9.65;;;6.90;;
70953;SDS011;58618;47.490;8.736;2024-03-02T11:18:36;10.05;;;7.13;;
70953;SDS011;58618;47.490;8.736;2024-03-02T11:21:27;11.10;;;6.70;;
70953;SDS011;58618;47.490;8.736;2024-03-02T11:24:30;11.50;;;7.57;;
70953;SDS011;58618;47.490;8.736;2024-03-02T11:30:49;11.20;;;6.97;;
70953;SDS011;58618;47.490;8.736;2024-03-02T11:33:37;11.38;;;7.35;;
70953;SDS011;58618;47.490;8.736;2024-03-02T11:36:26;11.07;;;7.47;;
70953;SDS011;58618;47.490;8.736;2024-03-02T11:39:14;10.80;;;6.87;;
70953;SDS011;58618;47.490;8.736;2024-03-02T11:42:02;12.32;;;7.15;;
70953;SDS011;58618;47.490;8.736;2024-03-02T11:44:49;10.70;;;7.10;;
70953;SDS011;58618;47.490;8.736;2024-03-02T11:47:37;10.63;;;6.55;;
70953;SDS011;58618;47.490;8.736;2024-03-02T11:50:28;11.00;;;6.80;;
70953;SDS011;58618;47.490;8.736;2024-03-02T11:53:17;10.23;;;6.87;;
70953;SDS011;58618;47.490;8.736;2024-03-02T11:56:06;9.30;;;6.32;;
70953;SDS011;58618;47.490;8.736;2024-03-02T11:58:55;9.40;;;6.55;;
70953;SDS011;58618;47.490;8.736;2024-03-02T12:01:43;10.18;;;6.88;;
70953;SDS011;58618;47.490;8.736;2024-03-02T12:04:32;9.73;;;6.47;;
70953;SDS011;58618;47.490;8.736;2024-03-02T12:07:19;10.40;;;5.97;;
70953;SDS011;58618;47.490;8.736;2024-03-02T12:10:11;9.73;;;6.95;;
70953;SDS011;58618;47.490;8.736;2024-03-02T12:12:58;9.43;;;6.43;;
70953;SDS011;58618;47.490;8.736;2024-03-02T12:15:47;10.32;;;6.88;;
70953;SDS011;58618;47.490;8.736;2024-03-02T12:18:34;9.55;;;6.43;;
70953;SDS011;58618;47.490;8.736;2024-03-02T12:21:22;9.10;;;6.40;;
70953;SDS011;58618;47.490;8.736;2024-03-02T12:24:09;9.80;;;6.15;;
70953;SDS011;58618;47.490;8.736;2024-03-02T12:26:58;8.80;;;6.28;;
70953;SDS011;58618;47.490;8.736;2024-03-02T12:29:45;8.20;;;5.97;;
70953;SDS011;58618;47.490;8.736;2024-03-02T12:32:32;7.97;;;5.65;;
70953;SDS011;58618;47.490;8.736;2024-03-02T12:35:20;9.10;;;6.10;;
70953;SDS011;58618;47.490;8.736;2024-03-02T12:38:08;8.80;;;5.90;;
70953;SDS011;58618;47.490;8.736;2024-03-02T12:40:56;8.15;;;5.70;;
70953;SDS011;58618;47.490;8.736;2024-03-02T12:43:45;7.82;;;5.78;;
70953;SDS011;58618;47.490;8.736;2024-03-02T12:46:32;9.20;;;5.78;;
70953;SDS011;58618;47.490;8.736;2024-03-02T12:49:21;8.37;;;5.47;;
70953;SDS011;58618;47.490;8.736;2024-03-02T12:52:11;7.35;;;5.47;;
70953;SDS011;58618;47.490;8.736;2024-03-02T12:54:59;8.70;;;5.30;;
70953;SDS011;58618;47.490;8.736;2024-03-02T12:57:49;8.65;;;5.95;;
70953;SDS011;58618;47.490;8.736;2024-03-02T13:00:38;7.32;;;4.90;;
70953;SDS011;58618;47.490;8.736;2024-03-02T13:03:26;7.27;;;5.00;;
70953;SDS011;58618;47.490;8.736;2024-03-02T13:06:13;7.13;;;4.85;;
70953;SDS011;58618;47.490;8.736;2024-03-02T13:09:00;8.15;;;5.20;;
70953;SDS011;58618;47.490;8.736;2024-03-02T13:11:48;6.38;;;4.63;;
70953;SDS011;58618;47.490;8.736;2024-03-02T13:14:35;7.25;;;5.03;;
70953;SDS011;58618;47.490;8.736;2024-03-02T13:17:24;6.70;;;4.40;;
70953;SDS011;58618;47.490;8.736;2024-03-02T13:20:12;7.47;;;4.50;;
70953;SDS011;58618;47.490;8.736;2024-03-02T13:23:00;6.32;;;4.18;;
70953;SDS011;58618;47.490;8.736;2024-03-02T13:25:47;6.30;;;3.80;;
70953;SDS011;58618;47.490;8.736;2024-03-02T13:28:37;6.78;;;4.32;;
70953;SDS011;58618;47.490;8.736;2024-03-02T13:31:25;6.40;;;3.93;;
70953;SDS011;58618;47.490;8.736;2024-03-02T13:34:13;6.45;;;3.83;;
70953;SDS011;58618;47.490;8.736;2024-03-02T13:37:02;6.18;;;4.03;;
70953;SDS011;58618;47.490;8.736;2024-03-02T13:39:52;5.40;;;3.40;;
70953;SDS011;58618;47.490;8.736;2024-03-02T13:42:40;5.90;;;3.45;;
70953;SDS011;58618;47.490;8.736;2024-03-02T13:45:27;5.37;;;3.27;;
70953;SDS011;58618;47.490;8.736;2024-03-02T13:48:14;5.82;;;3.60;;
70953;SDS011;58618;47.490;8.736;2024-03-02T13:51:06;5.25;;;3.50;;
70953;SDS011;58618;47.490;8.736;2024-03-02T13:53:53;6.07;;;4.18;;
70953;SDS011;58618;47.490;8.736;2024-03-02T13:56:43;5.03;;;3.70;;
70953;SDS011;58618;47.490;8.736;2024-03-02T13:59:30;5.90;;;3.50;;
70953;SDS011;58618;47.490;8.736;2024-03-02T14:02:20;4.57;;;2.83;;
70953;SDS011;58618;47.490;8.736;2024-03-02T14:05:07;4.63;;;3.25;;
70953;SDS011;58618;47.490;8.736;2024-03-02T14:07:58;3.83;;;2.65;;
70953;SDS011;58618;47.490;8.736;2024-03-02T14:10:46;3.90;;;2.80;;
70953;SDS011;58618;47.490;8.736;2024-03-02T14:13:34;4.70;;;2.20;;
70953;SDS011;58618;47.490;8.736;2024-03-02T14:16:21;3.50;;;2.13;;
70953;SDS011;58618;47.490;8.736;2024-03-02T14:19:08;2.38;;;1.60;;
70953;SDS011;58618;47.490;8.736;2024-03-02T14:21:56;3.03;;;2.10;;
70953;SDS011;58618;47.490;8.736;2024-03-02T14:24:44;4.03;;;2.30;;
70953;SDS011;58618;47.490;8.736;2024-03-02T14:27:32;3.00;;;2.10;;
70953;SDS011;58618;47.490;8.736;2024-03-02T14:30:21;2.97;;;2.20;;
70953;SDS011;58618;47.490;8.736;2024-03-02T14:33:08;3.38;;;2.50;;
70953;SDS011;58618;47.490;8.736;2024-03-02T14:35:56;3.78;;;2.30;;
70953;SDS011;58618;47.490;8.736;2024-03-02T14:38:44;4.22;;;2.00;;
70953;SDS011;58618;47.490;8.736;2024-03-02T14:41:33;3.20;;;2.13;;
70953;SDS011;58618;47.490;8.736;2024-03-02T14:44:20;2.88;;;2.22;;
70953;SDS011;58618;47.490;8.736;2024-03-02T14:47:07;3.13;;;2.50;;
70953;SDS011;58618;47.490;8.736;2024-03-02T14:49:55;4.30;;;2.50;;
70953;SDS011;58618;47.490;8.736;2024-03-02T14:52:42;4.45;;;3.10;;
70953;SDS011;58618;47.490;8.736;2024-03-02T14:55:31;3.90;;;2.53;;
70953;SDS011;58618;47.490;8.736;2024-03-02T14:58:22;4.55;;;2.70;;
70953;SDS011;58618;47.490;8.736;2024-03-02T15:01:09;4.05;;;3.10;;
70953;SDS011;58618;47.490;8.736;2024-03-02T15:03:56;3.70;;;2.78;;
70953;SDS011;58618;47.490;8.736;2024-03-02T15:06:44;3.63;;;2.60;;
70953;SDS011;58618;47.490;8.736;2024-03-02T15:09:31;3.83;;;2.90;;
70953;SDS011;58618;47.490;8.736;2024-03-02T15:12:21;4.50;;;2.90;;
70953;SDS011;58618;47.490;8.736;2024-03-02T15:15:10;3.95;;;2.58;;
70953;SDS011;58618;47.490;8.736;2024-03-02T15:17:57;4.22;;;3.05;;
70953;SDS011;58618;47.490;8.736;2024-03-02T15:20:44;5.45;;;2.90;;
70953;SDS011;58618;47.490;8.736;2024-03-02T15:23:32;5.70;;;3.03;;
70953;SDS011;58618;47.490;8.736;2024-03-02T15:26:20;4.25;;;2.90;;
70953;SDS011;58618;47.490;8.736;2024-03-02T15:29:07;3.78;;;2.92;;
70953;SDS011;58618;47.490;8.736;2024-03-02T15:31:56;5.45;;;3.08;;
70953;SDS011;58618;47.490;8.736;2024-03-02T15:34:44;3.65;;;2.90;;
70953;SDS011;58618;47.490;8.736;2024-03-02T15:37:31;5.73;;;3.30;;
70953;SDS011;58618;47.490;8.736;2024-03-02T15:40:18;4.63;;;2.53;;
70953;SDS011;58618;47.490;8.736;2024-03-02T15:43:06;5.15;;;3.15;;
70953;SDS011;58618;47.490;8.736;2024-03-02T15:45:53;3.78;;;2.40;;
70953;SDS011;58618;47.490;8.736;2024-03-02T15:48:42;5.15;;;2.50;;
70953;SDS011;58618;47.490;8.736;2024-03-02T15:51:29;3.90;;;2.10;;
70953;SDS011;58618;47.490;8.736;2024-03-02T15:54:17;3.50;;;2.42;;
70953;SDS011;58618;47.490;8.736;2024-03-02T15:57:04;4.00;;;2.20;;
70953;SDS011;58618;47.490;8.736;2024-03-02T15:59:52;5.07;;;2.33;;
70953;SDS011;58618;47.490;8.736;2024-03-02T16:02:39;5.45;;;2.33;;
70953;SDS011;58618;47.490;8.736;2024-03-02T16:05:28;4.67;;;2.80;;
70953;SDS011;58618;47.490;8.736;2024-03-02T16:08:15;3.67;;;2.42;;
70953;SDS011;58618;47.490;8.736;2024-03-02T16:11:03;3.65;;;2.10;;
70953;SDS011;58618;47.490;8.736;2024-03-02T16:13:50;3.38;;;2.08;;
70953;SDS011;58618;47.490;8.736;2024-03-02T16:16:38;9.52;;;2.40;;
70953;SDS011;58618;47.490;8.736;2024-03-02T16:19:25;3.50;;;2.37;;
70953;SDS011;58618;47.490;8.736;2024-03-02T16:22:14;4.97;;;2.80;;
70953;SDS011;58618;47.490;8.736;2024-03-02T16:25:01;4.80;;;2.45;;
70953;SDS011;58618;47.490;8.736;2024-03-02T16:27:49;3.35;;;2.45;;
70953;SDS011;58618;47.490;8.736;2024-03-02T16:30:36;4.50;;;2.20;;
70953;SDS011;58618;47.490;8.736;2024-03-02T16:33:23;8.17;;;2.47;;
70953;SDS011;58618;47.490;8.736;2024-03-02T16:36:11;3.97;;;2.88;;
70953;SDS011;58618;47.490;8.736;2024-03-02T16:38:59;3.40;;;2.20;;
70953;SDS011;58618;47.490;8.736;2024-03-02T16:41:50;4.72;;;2.35;;
70953;SDS011;58618;47.490;8.736;2024-03-02T16:44:47;3.28;;;2.15;;
70953;SDS011;58618;47.490;8.736;2024-03-02T16:47:43;5.03;;;2.27;;
70953;SDS011;58618;47.490;8.736;2024-03-02T16:50:43;3.92;;;2.30;;
70953;SDS011;58618;47.490;8.736;2024-03-02T16:53:37;4.13;;;2.35;;
70953;SDS011;58618;47.490;8.736;2024-03-02T16:56:46;3.67;;;2.40;;